Aérodrome :
LOGIN :

S'inscrire | Disclaimer

   EN    FR    IT 

 










Légende :    VFR   VFR Marginal   IFR   IFR Intensif   IFR Très Intensif
Visi : 
Plafond : 
>= 8 km
>= 3000ft
5 à 8 km
1000 à 3000 ft
1500m à 5 km
500 à 1000 ft
800 à 1500m
200 à 500 ft
< 800m
< 200 ft
Symboles :   Orages  Brouillard  Fortes neiges  Fortes précipitations  Vent > 20 kt
SIGMETs :   Divers  Orages  Givrage  Turbulence  Onde Orograph.  Cendres Volcan.






- Altitude de l'aérodrome : 464 ft
- Code IATA : EVX


LFOE - Evreux

DERNIER METAR :
  • 200400Z AUTO 03003KT CAVOK 04/00 Q1017 TEMPO 0400 FG VV///

METARs EXPIRÉS :
  • 200330Z AUTO 02003KT CAVOK 05/01 Q1017 TEMPO 0400 FG VV///
  • 200300Z AUTO 08003KT CAVOK 05/01 Q1017 TEMPO 0400 FG VV///
  • 200230Z AUTO 00000KT CAVOK 05/01 Q1017 TEMPO 0400 FG VV///
  • 200200Z AUTO 01003KT CAVOK 05/01 Q1017 BECMG 3000 BR
  • 200130Z AUTO VRB02KT CAVOK 05/01 Q1017 BECMG 3000 BR

TAF AMD TAF LFOE
Valide du 20 à 03h jusqu'au 21 à 03h UTC


200355Z 2003/2103 VRB03KT CAVOK
PROB40
TEMPO 2004/2007 0400 FG VV///
PROB30
TEMPO 2013/2017 4000 -SHRA SCT050TCU
BECMG 2019/2021 VRB03KT



MET'MAP, la Météo Aéronautique d'un coup d'oeil ! - Copyright ORBIFLY Décembre 2007 - Disclaimer

ORBIFLY MET'MAP TEAM :

Programmation & Développement : Alexandra Zaïnal
Sur une idée originale de : Baudouin d'Aumeries
Assistance à la programmation : Marc-Olivier Méhu
Soutien technique & logistique : Manuel Goepfert

Contact : metmap@orbifly.com




SOURCES & CREDITS :

   NOAA